sensor_id;sensor_type;location;lat;lon;timestamp;pressure;altitude;pressure_sealevel;temperature;humidity
72157;BME280;60035;52.122;5.406;2024-03-08T00:02:25;102098.25;;;2.87;100.00
72157;BME280;60035;52.122;5.406;2024-03-08T00:04:57;102108.38;;;2.87;100.00
72157;BME280;60035;52.122;5.406;2024-03-08T00:07:28;102098.19;;;2.83;100.00
72157;BME280;60035;52.122;5.406;2024-03-08T00:10:03;102101.53;;;2.82;100.00
72157;BME280;60035;52.122;5.406;2024-03-08T00:12:35;102094.75;;;2.81;100.00
72157;BME280;60035;52.122;5.406;2024-03-08T00:15:07;102098.09;;;2.80;100.00
72157;BME280;60035;52.122;5.406;2024-03-08T00:17:43;102094.66;;;2.77;100.00
72157;BME280;60035;52.122;5.406;2024-03-08T00:20:16;102094.56;;;2.74;100.00
72157;BME280;60035;52.122;5.406;2024-03-08T00:22:50;102092.91;;;2.73;100.00
72157;BME280;60035;52.122;5.406;2024-03-08T00:25:24;102090.38;;;2.73;100.00
72157;BME280;60035;52.122;5.406;2024-03-08T00:27:56;102087.78;;;2.71;100.00
72157;BME280;60035;52.122;5.406;2024-03-08T00:30:27;102089.41;;;2.67;100.00
72157;BME280;60035;52.122;5.406;2024-03-08T00:32:58;102092.69;;;2.63;100.00
72157;BME280;60035;52.122;5.406;2024-03-08T00:35:30;102089.28;;;2.63;100.00
72157;BME280;60035;52.122;5.406;2024-03-08T00:38:02;102082.47;;;2.60;100.00
72157;BME280;60035;52.122;5.406;2024-03-08T00:40:36;102074.81;;;2.57;100.00
72157;BME280;60035;52.122;5.406;2024-03-08T00:43:08;102081.50;;;2.55;100.00
72157;BME280;60035;52.122;5.406;2024-03-08T00:45:39;102078.13;;;2.55;100.00
72157;BME280;60035;52.122;5.406;2024-03-08T00:48:11;102081.44;;;2.52;100.00
72157;BME280;60035;52.122;5.406;2024-03-08T00:50:43;102072.94;;;2.50;100.00
72157;BME280;60035;52.122;5.406;2024-03-08T00:53:15;102077.09;;;2.46;100.00
72157;BME280;60035;52.122;5.406;2024-03-08T00:55:50;102069.44;;;2.43;100.00
72157;BME280;60035;52.122;5.406;2024-03-08T00:58:22;102063.50;;;2.41;100.00
72157;BME280;60035;52.122;5.406;2024-03-08T01:00:54;102060.84;;;2.37;100.00
72157;BME280;60035;52.122;5.406;2024-03-08T01:03:25;102050.69;;;2.35;100.00
72157;BME280;60035;52.122;5.406;2024-03-08T01:05:59;102047.34;;;2.35;100.00
72157;BME280;60035;52.122;5.406;2024-03-08T01:08:32;102044.72;;;2.31;100.00
72157;BME280;60035;52.122;5.406;2024-03-08T01:11:08;102039.63;;;2.30;100.00
72157;BME280;60035;52.122;5.406;2024-03-08T01:13:40;102035.34;;;2.27;100.00
72157;BME280;60035;52.122;5.406;2024-03-08T01:16:11;102032.78;;;2.26;100.00
72157;BME280;60035;52.122;5.406;2024-03-08T01:18:43;102033.59;;;2.25;100.00
72157;BME280;60035;52.122;5.406;2024-03-08T01:21:15;102026.00;;;2.25;100.00
72157;BME280;60035;52.122;5.406;2024-03-08T01:23:46;102029.38;;;2.24;100.00
72157;BME280;60035;52.122;5.406;2024-03-08T01:26:20;102022.53;;;2.20;100.00
72157;BME280;60035;52.122;5.406;2024-03-08T01:28:51;102016.59;;;2.17;100.00
72157;BME280;60035;52.122;5.406;2024-03-08T01:31:22;102024.13;;;2.16;100.00
72157;BME280;60035;52.122;5.406;2024-03-08T01:33:53;102019.88;;;2.13;100.00
72157;BME280;60035;52.122;5.406;2024-03-08T01:36:25;102008.84;;;2.11;100.00
72157;BME280;60035;52.122;5.406;2024-03-08T01:38:57;102014.72;;;2.10;100.00
72157;BME280;60035;52.122;5.406;2024-03-08T01:41:31;102007.94;;;2.08;100.00
72157;BME280;60035;52.122;5.406;2024-03-08T01:44:05;102004.47;;;2.04;100.00
72157;BME280;60035;52.122;5.406;2024-03-08T01:46:37;102008.63;;;2.02;100.00
72157;BME280;60035;52.122;5.406;2024-03-08T01:49:08;101996.81;;;2.01;100.00
72157;BME280;60035;52.122;5.406;2024-03-08T01:51:41;102002.69;;;2.00;100.00
72157;BME280;60035;52.122;5.406;2024-03-08T01:54:14;101994.22;;;1.98;100.00
72157;BME280;60035;52.122;5.406;2024-03-08T01:56:50;101987.38;;;1.94;100.00
72157;BME280;60035;52.122;5.406;2024-03-08T01:59:22;101983.09;;;1.91;100.00
72157;BME280;60035;52.122;5.406;2024-03-08T02:01:55;101985.63;;;1.91;100.00
72157;BME280;60035;52.122;5.406;2024-03-08T02:04:29;101984.75;;;1.89;100.00
72157;BME280;60035;52.122;5.406;2024-03-08T02:07:01;101989.75;;;1.88;100.00
72157;BME280;60035;52.122;5.406;2024-03-08T02:09:37;101988.91;;;1.87;100.00
72157;BME280;60035;52.122;5.406;2024-03-08T02:12:11;101979.56;;;1.85;100.00
72157;BME280;60035;52.122;5.406;2024-03-08T02:14:43;101981.97;;;1.80;100.00
72157;BME280;60035;52.122;5.406;2024-03-08T02:17:14;101987.00;;;1.78;100.00
72157;BME280;60035;52.122;5.406;2024-03-08T02:19:46;101978.56;;;1.78;100.00
72157;BME280;60035;52.122;5.406;2024-03-08T02:22:19;101977.63;;;1.74;100.00
72157;BME280;60035;52.122;5.406;2024-03-08T02:24:51;101971.75;;;1.74;100.00
72157;BME280;60035;52.122;5.406;2024-03-08T02:27:23;101967.47;;;1.71;100.00
72157;BME280;60035;52.122;5.406;2024-03-08T02:29:55;101967.47;;;1.71;100.00
72157;BME280;60035;52.122;5.406;2024-03-08T02:32:27;101964.91;;;1.70;100.00
72157;BME280;60035;52.122;5.406;2024-03-08T02:35:00;101955.59;;;1.67;100.00
72157;BME280;60035;52.122;5.406;2024-03-08T02:37:36;101953.88;;;1.66;100.00
72157;BME280;60035;52.122;5.406;2024-03-08T02:40:09;101957.16;;;1.63;100.00
72157;BME280;60035;52.122;5.406;2024-03-08T02:42:41;101946.16;;;1.61;100.00
72157;BME280;60035;52.122;5.406;2024-03-08T02:45:12;101947.81;;;1.59;100.00
72157;BME280;60035;52.122;5.406;2024-03-08T02:47:44;101944.34;;;1.56;100.00
72157;BME280;60035;52.122;5.406;2024-03-08T02:50:17;101940.09;;;1.55;100.00
72157;BME280;60035;52.122;5.406;2024-03-08T02:52:52;101934.19;;;1.53;100.00
72157;BME280;60035;52.122;5.406;2024-03-08T02:55:24;101927.34;;;1.48;100.00
72157;BME280;60035;52.122;5.406;2024-03-08T02:57:55;101923.09;;;1.47;100.00
72157;BME280;60035;52.122;5.406;2024-03-08T03:00:27;101929.88;;;1.48;100.00
72157;BME280;60035;52.122;5.406;2024-03-08T03:02:58;101924.78;;;1.47;100.00
72157;BME280;60035;52.122;5.406;2024-03-08T03:05:31;101921.34;;;1.45;100.00
72157;BME280;60035;52.122;5.406;2024-03-08T03:08:05;101920.44;;;1.43;100.00
72157;BME280;60035;52.122;5.406;2024-03-08T03:10:37;101917.06;;;1.41;100.00
72157;BME280;60035;52.122;5.406;2024-03-08T03:13:08;101918.66;;;1.39;100.00
72157;BME280;60035;52.122;5.406;2024-03-08T03:15:40;101915.31;;;1.38;100.00
72157;BME280;60035;52.122;5.406;2024-03-08T03:18:12;101914.38;;;1.36;100.00
72157;BME280;60035;52.122;5.406;2024-03-08T03:20:43;101906.75;;;1.33;100.00
72157;BME280;60035;52.122;5.406;2024-03-08T03:23:18;101910.84;;;1.29;100.00
72157;BME280;60035;52.122;5.406;2024-03-08T03:25:51;101906.66;;;1.28;100.00
72157;BME280;60035;52.122;5.406;2024-03-08T03:28:25;101904.97;;;1.29;100.00
72157;BME280;60035;52.122;5.406;2024-03-08T03:30:56;101896.47;;;1.25;100.00
72157;BME280;60035;52.122;5.406;2024-03-08T03:33:29;101895.50;;;1.22;100.00
72157;BME280;60035;52.122;5.406;2024-03-08T03:36:02;101894.69;;;1.21;100.00
72157;BME280;60035;52.122;5.406;2024-03-08T03:38:39;101899.69;;;1.20;100.00
72157;BME280;60035;52.122;5.406;2024-03-08T03:41:10;101903.00;;;1.19;100.00
72157;BME280;60035;52.122;5.406;2024-03-08T03:43:42;101891.22;;;1.17;100.00
72157;BME280;60035;52.122;5.406;2024-03-08T03:46:14;101889.53;;;1.16;100.00
72157;BME280;60035;52.122;5.406;2024-03-08T03:48:45;101892.03;;;1.16;100.00
72157;BME280;60035;52.122;5.406;2024-03-08T03:51:16;101889.47;;;1.15;100.00
72157;BME280;60035;52.122;5.406;2024-03-08T03:53:51;101891.09;;;1.13;100.00
72157;BME280;60035;52.122;5.406;2024-03-08T03:56:25;101887.72;;;1.12;100.00
72157;BME280;60035;52.122;5.406;2024-03-08T03:58:58;101896.94;;;1.12;100.00
72157;BME280;60035;52.122;5.406;2024-03-08T04:01:29;101885.16;;;1.11;100.00
72157;BME280;60035;52.122;5.406;2024-03-08T04:04:03;101890.16;;;1.09;100.00
72157;BME280;60035;52.122;5.406;2024-03-08T04:06:35;101880.06;;;1.09;100.00
72157;BME280;60035;52.122;5.406;2024-03-08T04:09:08;101879.22;;;1.09;100.00
72157;BME280;60035;52.122;5.406;2024-03-08T04:11:40;101877.50;;;1.08;100.00
72157;BME280;60035;52.122;5.406;2024-03-08T04:14:11;101876.59;;;1.06;100.00
72157;BME280;60035;52.122;5.406;2024-03-08T04:16:42;101872.44;;;1.06;100.00
72157;BME280;60035;52.122;5.406;2024-03-08T04:19:15;101864.88;;;1.06;100.00
72157;BME280;60035;52.122;5.406;2024-03-08T04:21:46;101867.34;;;1.05;100.00
72157;BME280;60035;52.122;5.406;2024-03-08T04:24:20;101867.28;;;1.03;100.00
72157;BME280;60035;52.122;5.406;2024-03-08T04:26:52;101866.44;;;1.03;100.00
72157;BME280;60035;52.122;5.406;2024-03-08T04:29:22;101868.13;;;1.02;100.00
72157;BME280;60035;52.122;5.406;2024-03-08T04:31:54;101863.00;;;1.00;100.00
72157;BME280;60035;52.122;5.406;2024-03-08T04:34:25;101859.66;;;1.00;100.00
72157;BME280;60035;52.122;5.406;2024-03-08T04:36:57;101857.13;;;1.00;100.00
72157;BME280;60035;52.122;5.406;2024-03-08T04:39:32;101865.50;;;0.99;100.00
72157;BME280;60035;52.122;5.406;2024-03-08T04:42:05;101861.28;;;0.98;100.00
72157;BME280;60035;52.122;5.406;2024-03-08T04:44:38;101857.06;;;0.97;100.00
72157;BME280;60035;52.122;5.406;2024-03-08T04:47:10;101857.88;;;0.96;100.00
72157;BME280;60035;52.122;5.406;2024-03-08T04:49:41;101859.56;;;0.97;100.00
72157;BME280;60035;52.122;5.406;2024-03-08T04:52:12;101854.44;;;0.94;100.00
72157;BME280;60035;52.122;5.406;2024-03-08T04:54:46;101845.19;;;0.93;100.00
72157;BME280;60035;52.122;5.406;2024-03-08T04:57:17;101840.06;;;0.91;100.00
72157;BME280;60035;52.122;5.406;2024-03-08T04:59:49;101845.13;;;0.91;100.00
72157;BME280;60035;52.122;5.406;2024-03-08T05:02:20;101841.72;;;0.89;100.00
72157;BME280;60035;52.122;5.406;2024-03-08T05:04:52;101843.44;;;0.90;100.00
72157;BME280;60035;52.122;5.406;2024-03-08T05:07:24;101845.03;;;0.88;100.00
72157;BME280;60035;52.122;5.406;2024-03-08T05:09:58;101844.97;;;0.85;100.00
72157;BME280;60035;52.122;5.406;2024-03-08T05:12:30;101839.13;;;0.86;100.00
72157;BME280;60035;52.122;5.406;2024-03-08T05:15:01;101845.78;;;0.84;100.00
72157;BME280;60035;52.122;5.406;2024-03-08T05:17:35;101843.25;;;0.84;100.00
72157;BME280;60035;52.122;5.406;2024-03-08T05:20:08;101839.91;;;0.83;100.00
72157;BME280;60035;52.122;5.406;2024-03-08T05:22:41;101839.81;;;0.82;100.00
72157;BME280;60035;52.122;5.406;2024-03-08T05:25:15;101837.28;;;0.80;100.00
72157;BME280;60035;52.122;5.406;2024-03-08T05:27:46;101834.72;;;0.79;100.00
72157;BME280;60035;52.122;5.406;2024-03-08T05:30:18;101829.63;;;0.77;100.00
72157;BME280;60035;52.122;5.406;2024-03-08T05:32:49;101829.59;;;0.76;100.00
72157;BME280;60035;52.122;5.406;2024-03-08T05:35:21;101829.59;;;0.76;100.00
72157;BME280;60035;52.122;5.406;2024-03-08T05:37:52;101834.69;;;0.77;100.00
72157;BME280;60035;52.122;5.406;2024-03-08T05:40:28;101830.44;;;0.76;100.00
72157;BME280;60035;52.122;5.406;2024-03-08T05:42:59;101821.22;;;0.77;100.00
72157;BME280;60035;52.122;5.406;2024-03-08T05:45:30;101820.38;;;0.76;100.00
72157;BME280;60035;52.122;5.406;2024-03-08T05:48:03;101822.06;;;0.77;100.00
72157;BME280;60035;52.122;5.406;2024-03-08T05:50:35;101822.06;;;0.77;100.00
72157;BME280;60035;52.122;5.406;2024-03-08T05:53:07;101824.56;;;0.76;100.00
72157;BME280;60035;52.122;5.406;2024-03-08T05:55:41;101818.59;;;0.74;100.00
72157;BME280;60035;52.122;5.406;2024-03-08T05:58:12;101815.25;;;0.73;100.00
72157;BME280;60035;52.122;5.406;2024-03-08T06:00:43;101816.06;;;0.72;100.00
72157;BME280;60035;52.122;5.406;2024-03-08T06:03:19;101811.84;;;0.73;100.00
72157;BME280;60035;52.122;5.406;2024-03-08T06:05:51;101805.13;;;0.72;100.00
72157;BME280;60035;52.122;5.406;2024-03-08T06:08:24;101806.78;;;0.71;100.00
72157;BME280;60035;52.122;5.406;2024-03-08T06:11:01;101803.41;;;0.71;100.00
72157;BME280;60035;52.122;5.406;2024-03-08T06:13:33;101804.25;;;0.71;100.00
72157;BME280;60035;52.122;5.406;2024-03-08T06:16:05;101806.81;;;0.73;100.00
72157;BME280;60035;52.122;5.406;2024-03-08T06:18:37;101806.81;;;0.73;100.00
72157;BME280;60035;52.122;5.406;2024-03-08T06:21:09;101804.28;;;0.73;100.00
72157;BME280;60035;52.122;5.406;2024-03-08T06:23:41;101802.66;;;0.73;100.00
72157;BME280;60035;52.122;5.406;2024-03-08T06:26:15;101806.00;;;0.74;100.00
72157;BME280;60035;52.122;5.406;2024-03-08T06:28:47;101805.19;;;0.75;100.00
72157;BME280;60035;52.122;5.406;2024-03-08T06:31:18;101810.22;;;0.73;100.00
72157;BME280;60035;52.122;5.406;2024-03-08T06:33:49;101811.91;;;0.74;100.00
72157;BME280;60035;52.122;5.406;2024-03-08T06:36:24;101800.16;;;0.75;100.00
72157;BME280;60035;52.122;5.406;2024-03-08T06:38:55;101795.13;;;0.75;100.00
72157;BME280;60035;52.122;5.406;2024-03-08T06:41:29;101797.66;;;0.76;100.00
72157;BME280;60035;52.122;5.406;2024-03-08T06:44:04;101793.50;;;0.77;100.00
72157;BME280;60035;52.122;5.406;2024-03-08T06:46:36;101791.00;;;0.78;100.00
72157;BME280;60035;52.122;5.406;2024-03-08T06:49:08;101794.44;;;0.82;100.00
72157;BME280;60035;52.122;5.406;2024-03-08T06:51:39;101790.31;;;0.84;100.00
72157;BME280;60035;52.122;5.406;2024-03-08T06:54:11;101789.53;;;0.87;100.00
72157;BME280;60035;52.122;5.406;2024-03-08T06:56:45;101784.53;;;0.88;100.00
72157;BME280;60035;52.122;5.406;2024-03-08T06:59:16;101789.72;;;0.93;100.00
72157;BME280;60035;52.122;5.406;2024-03-08T07:01:49;101786.41;;;0.95;100.00
72157;BME280;60035;52.122;5.406;2024-03-08T07:04:21;101788.19;;;0.99;100.00
72157;BME280;60035;52.122;5.406;2024-03-08T07:06:56;101787.50;;;1.05;100.00
72157;BME280;60035;52.122;5.406;2024-03-08T07:09:30;101782.53;;;1.10;100.00
72157;BME280;60035;52.122;5.406;2024-03-08T07:12:04;101780.97;;;1.13;100.00
72157;BME280;60035;52.122;5.406;2024-03-08T07:14:37;101785.31;;;1.19;100.00
72157;BME280;60035;52.122;5.406;2024-03-08T07:17:09;101782.88;;;1.22;100.00
72157;BME280;60035;52.122;5.406;2024-03-08T07:19:41;101774.56;;;1.28;100.00
72157;BME280;60035;52.122;5.406;2024-03-08T07:22:12;101789.00;;;1.33;100.00
72157;BME280;60035;52.122;5.406;2024-03-08T07:24:44;101778.25;;;1.41;100.00
72157;BME280;60035;52.122;5.406;2024-03-08T07:27:35;101775.00;;;1.46;100.00
72157;BME280;60035;52.122;5.406;2024-03-08T07:30:07;101762.53;;;1.51;100.00
72157;BME280;60035;52.122;5.406;2024-03-08T07:32:40;101766.03;;;1.58;100.00
72157;BME280;60035;52.122;5.406;2024-03-08T07:35:12;101752.72;;;1.65;100.00
72157;BME280;60035;52.122;5.406;2024-03-08T07:37:46;101762.06;;;1.69;100.00
72157;BME280;60035;52.122;5.406;2024-03-08T07:40:17;101755.47;;;1.76;100.00
72157;BME280;60035;52.122;5.406;2024-03-08T07:42:51;101750.56;;;1.82;100.00
72157;BME280;60035;52.122;5.406;2024-03-08T07:45:22;101753.25;;;1.90;100.00
72157;BME280;60035;52.122;5.406;2024-03-08T07:47:53;101755.06;;;1.97;100.00
72157;BME280;60035;52.122;5.406;2024-03-08T07:50:26;101751.84;;;2.03;100.00
72157;BME280;60035;52.122;5.406;2024-03-08T07:52:57;101757.78;;;2.06;100.00
72157;BME280;60035;52.122;5.406;2024-03-08T07:55:31;101745.28;;;2.12;100.00
72157;BME280;60035;52.122;5.406;2024-03-08T07:58:05;101741.19;;;2.17;100.00
72157;BME280;60035;52.122;5.406;2024-03-08T08:00:38;101738.81;;;2.25;100.00
72157;BME280;60035;52.122;5.406;2024-03-08T08:03:10;101738.97;;;2.33;100.00
72157;BME280;60035;52.122;5.406;2024-03-08T08:05:43;101735.72;;;2.40;100.00
72157;BME280;60035;52.122;5.406;2024-03-08T08:08:16;101725.72;;;2.46;100.00
72157;BME280;60035;52.122;5.406;2024-03-08T08:10:47;101724.13;;;2.52;100.00
72157;BME280;60035;52.122;5.406;2024-03-08T08:13:22;101720.94;;;2.62;100.00
72157;BME280;60035;52.122;5.406;2024-03-08T08:15:55;101724.47;;;2.70;100.00
72157;BME280;60035;52.122;5.406;2024-03-08T08:18:27;101721.22;;;2.79;100.00
72157;BME280;60035;52.122;5.406;2024-03-08T08:20:57;101717.13;;;2.86;100.00
72157;BME280;60035;52.122;5.406;2024-03-08T08:23:29;101716.38;;;2.91;100.00
72157;BME280;60035;52.122;5.406;2024-03-08T08:26:00;101708.88;;;2.97;100.00
72157;BME280;60035;52.122;5.406;2024-03-08T08:28:35;101715.72;;;3.03;100.00
72157;BME280;60035;52.122;5.406;2024-03-08T08:31:08;101705.72;;;3.11;100.00
72157;BME280;60035;52.122;5.406;2024-03-08T08:33:40;101709.25;;;3.22;100.00
72157;BME280;60035;52.122;5.406;2024-03-08T08:36:16;101706.84;;;3.30;100.00
72157;BME280;60035;52.122;5.406;2024-03-08T08:38:47;101698.47;;;3.34;100.00
72157;BME280;60035;52.122;5.406;2024-03-08T08:41:18;101697.69;;;3.40;100.00
72157;BME280;60035;52.122;5.406;2024-03-08T08:43:52;101689.34;;;3.45;100.00
72157;BME280;60035;52.122;5.406;2024-03-08T08:46:41;101693.66;;;3.54;100.00
72157;BME280;60035;52.122;5.406;2024-03-08T08:49:12;101686.22;;;3.65;100.00
72157;BME280;60035;52.122;5.406;2024-03-08T08:51:51;101677.81;;;3.69;100.00
72157;BME280;60035;52.122;5.406;2024-03-08T08:54:25;101671.19;;;3.76;100.00
72157;BME280;60035;52.122;5.406;2024-03-08T08:56:57;101673.78;;;3.83;100.00
72157;BME280;60035;52.122;5.406;2024-03-08T08:59:37;101664.63;;;3.93;100.00
72157;BME280;60035;52.122;5.406;2024-03-08T09:02:09;101665.56;;;4.03;100.00
72157;BME280;60035;52.122;5.406;2024-03-08T09:04:44;101662.28;;;4.10;100.00
72157;BME280;60035;52.122;5.406;2024-03-08T09:07:16;101657.31;;;4.21;100.00
72157;BME280;60035;52.122;5.406;2024-03-08T09:09:47;101656.50;;;4.28;100.00
72157;BME280;60035;52.122;5.406;2024-03-08T09:12:19;101658.31;;;4.39;100.00
72157;BME280;60035;52.122;5.406;2024-03-08T09:14:53;101652.50;;;4.49;100.00
72157;BME280;60035;52.122;5.406;2024-03-08T09:17:24;101649.97;;;4.50;100.00
72157;BME280;60035;52.122;5.406;2024-03-08T09:19:55;101643.25;;;4.57;100.00
72157;BME280;60035;52.122;5.406;2024-03-08T09:22:27;101639.97;;;4.69;100.00
72157;BME280;60035;52.122;5.406;2024-03-08T09:24:59;101637.50;;;4.80;100.00
72157;BME280;60035;52.122;5.406;2024-03-08T09:27:32;101633.38;;;4.90;100.00
72157;BME280;60035;52.122;5.406;2024-03-08T09:30:10;101633.44;;;4.99;100.00
72157;BME280;60035;52.122;5.406;2024-03-08T09:32:42;101621.63;;;5.07;100.00
72157;BME280;60035;52.122;5.406;2024-03-08T09:35:14;101625.06;;;5.18;100.00
72157;BME280;60035;52.122;5.406;2024-03-08T09:37:46;101615.81;;;5.33;100.00
72157;BME280;60035;52.122;5.406;2024-03-08T09:40:19;101620.94;;;5.38;100.00
72157;BME280;60035;52.122;5.406;2024-03-08T09:42:53;101607.41;;;5.45;100.00
72157;BME280;60035;52.122;5.406;2024-03-08T09:45:29;101606.63;;;5.55;100.00
72157;BME280;60035;52.122;5.406;2024-03-08T09:48:03;101602.41;;;5.60;100.00
72157;BME280;60035;52.122;5.406;2024-03-08T09:50:36;101599.03;;;5.72;100.00
72157;BME280;60035;52.122;5.406;2024-03-08T09:53:08;101594.00;;;5.83;100.00
72157;BME280;60035;52.122;5.406;2024-03-08T09:55:40;101585.53;;;5.93;100.00
72157;BME280;60035;52.122;5.406;2024-03-08T09:58:12;101582.19;;;6.08;100.00
72157;BME280;60035;52.122;5.406;2024-03-08T10:01:07;101581.34;;;6.22;100.00
72157;BME280;60035;52.122;5.406;2024-03-08T10:03:39;101569.50;;;6.33;100.00
72157;BME280;60035;52.122;5.406;2024-03-08T10:06:11;101568.66;;;6.45;100.00
72157;BME280;60035;52.122;5.406;2024-03-08T10:08:43;101570.34;;;6.55;100.00
72157;BME280;60035;52.122;5.406;2024-03-08T10:11:14;101559.28;;;6.70;100.00
72157;BME280;60035;52.122;5.406;2024-03-08T10:13:48;101561.81;;;6.82;100.00
72157;BME280;60035;52.122;5.406;2024-03-08T10:16:22;101556.69;;;6.92;100.00
72157;BME280;60035;52.122;5.406;2024-03-08T10:18:53;101546.47;;;7.07;99.87
72157;BME280;60035;52.122;5.406;2024-03-08T10:21:24;101533.69;;;7.16;99.53
72157;BME280;60035;52.122;5.406;2024-03-08T10:23:56;101536.16;;;7.35;99.39
72157;BME280;60035;52.122;5.406;2024-03-08T10:26:28;101529.28;;;7.49;98.15
72157;BME280;60035;52.122;5.406;2024-03-08T10:29:00;101525.00;;;7.58;97.07
72157;BME280;60035;52.122;5.406;2024-03-08T10:31:34;101526.63;;;7.68;95.78
72157;BME280;60035;52.122;5.406;2024-03-08T10:34:07;101514.59;;;7.87;95.25
72157;BME280;60035;52.122;5.406;2024-03-08T10:36:39;101512.00;;;7.95;93.46
72157;BME280;60035;52.122;5.406;2024-03-08T10:39:20;101506.84;;;8.01;92.02
72157;BME280;60035;52.122;5.406;2024-03-08T10:41:57;101497.41;;;8.09;91.20
72157;BME280;60035;52.122;5.406;2024-03-08T10:44:40;101496.47;;;8.24;90.42
72157;BME280;60035;52.122;5.406;2024-03-08T10:47:20;101499.78;;;8.29;89.65
72157;BME280;60035;52.122;5.406;2024-03-08T10:50:16;101502.25;;;8.42;88.58
72157;BME280;60035;52.122;5.406;2024-03-08T10:52:50;101488.56;;;8.50;88.27
72157;BME280;60035;52.122;5.406;2024-03-08T10:55:25;101482.44;;;8.67;87.48
72157;BME280;60035;52.122;5.406;2024-03-08T10:58:02;101475.38;;;8.88;86.74
72157;BME280;60035;52.122;5.406;2024-03-08T11:00:36;101479.59;;;8.90;84.55
72157;BME280;60035;52.122;5.406;2024-03-08T11:03:44;101461.66;;;8.96;83.79
72157;BME280;60035;52.122;5.406;2024-03-08T11:06:17;101456.41;;;9.06;84.17
72157;BME280;60035;52.122;5.406;2024-03-08T11:08:51;101446.84;;;9.22;83.80
72157;BME280;60035;52.122;5.406;2024-03-08T11:11:30;101439.19;;;9.20;82.71
72157;BME280;60035;52.122;5.406;2024-03-08T11:14:03;101436.53;;;9.28;82.00
72157;BME280;60035;52.122;5.406;2024-03-08T11:16:38;101434.84;;;9.27;78.95
72157;BME280;60035;52.122;5.406;2024-03-08T11:19:26;101428.69;;;9.40;80.22
72157;BME280;60035;52.122;5.406;2024-03-08T11:22:00;101425.03;;;9.57;79.96
72157;BME280;60035;52.122;5.406;2024-03-08T11:24:41;101411.28;;;9.62;78.75
72157;BME280;60035;52.122;5.406;2024-03-08T11:27:13;101404.47;;;9.64;78.75
72157;BME280;60035;52.122;5.406;2024-03-08T11:29:44;101401.66;;;9.78;78.46
72157;BME280;60035;52.122;5.406;2024-03-08T11:32:17;101402.34;;;9.87;77.86
72157;BME280;60035;52.122;5.406;2024-03-08T11:34:53;101385.91;;;10.02;77.58
72157;BME280;60035;52.122;5.406;2024-03-08T11:37:28;101376.41;;;10.08;76.17
72157;BME280;60035;52.122;5.406;2024-03-08T11:40:00;101373.22;;;9.95;73.46
72157;BME280;60035;52.122;5.406;2024-03-08T11:42:35;101370.56;;;10.00;75.13
72157;BME280;60035;52.122;5.406;2024-03-08T11:45:09;101365.78;;;10.28;74.86
72157;BME280;60035;52.122;5.406;2024-03-08T11:47:42;101356.97;;;10.43;72.64
72157;BME280;60035;52.122;5.406;2024-03-08T11:50:17;101356.72;;;10.56;70.98
72157;BME280;60035;52.122;5.406;2024-03-08T11:52:51;101353.34;;;10.54;69.88
72157;BME280;60035;52.122;5.406;2024-03-08T11:55:23;101343.66;;;10.68;70.74
72157;BME280;60035;52.122;5.406;2024-03-08T11:58:01;101346.63;;;10.87;70.63
72157;BME280;60035;52.122;5.406;2024-03-08T12:00:32;101346.25;;;11.04;70.09
72157;BME280;60035;52.122;5.406;2024-03-08T12:03:06;101333.94;;;11.19;69.59
72157;BME280;60035;52.122;5.406;2024-03-08T12:05:41;101328.47;;;11.34;68.67
72157;BME280;60035;52.122;5.406;2024-03-08T12:08:14;101329.16;;;11.41;67.78
72157;BME280;60035;52.122;5.406;2024-03-08T12:10:45;101313.34;;;11.56;67.50
72157;BME280;60035;52.122;5.406;2024-03-08T12:13:17;101315.94;;;11.55;66.58
72157;BME280;60035;52.122;5.406;2024-03-08T12:15:48;101321.03;;;11.58;64.74
72157;BME280;60035;52.122;5.406;2024-03-08T12:18:21;101309.13;;;11.55;65.71
72157;BME280;60035;52.122;5.406;2024-03-08T12:21:08;101313.03;;;11.69;65.38
72157;BME280;60035;52.122;5.406;2024-03-08T12:23:41;101312.94;;;11.72;64.50
72157;BME280;60035;52.122;5.406;2024-03-08T12:26:14;101306.94;;;11.73;64.14
72157;BME280;60035;52.122;5.406;2024-03-08T12:28:46;101302.28;;;11.87;64.68
72157;BME280;60035;52.122;5.406;2024-03-08T12:31:17;101293.56;;;11.93;64.17
72157;BME280;60035;52.122;5.406;2024-03-08T12:33:50;101286.72;;;11.95;64.05
72157;BME280;60035;52.122;5.406;2024-03-08T12:36:27;101283.41;;;11.90;62.88
72157;BME280;60035;52.122;5.406;2024-03-08T12:38:59;101281.53;;;11.96;62.73
72157;BME280;60035;52.122;5.406;2024-03-08T12:41:31;101268.75;;;11.95;61.73
72157;BME280;60035;52.122;5.406;2024-03-08T12:44:13;101265.47;;;11.88;61.18
72157;BME280;60035;52.122;5.406;2024-03-08T12:46:44;101266.19;;;11.95;62.16
72157;BME280;60035;52.122;5.406;2024-03-08T12:49:19;101262.53;;;12.02;61.98
72157;BME280;60035;52.122;5.406;2024-03-08T12:51:55;101264.88;;;12.10;61.43
72157;BME280;60035;52.122;5.406;2024-03-08T12:54:27;101258.72;;;12.15;61.46
72157;BME280;60035;52.122;5.406;2024-03-08T12:57:14;101257.44;;;12.30;61.42
72157;BME280;60035;52.122;5.406;2024-03-08T12:59:45;101248.75;;;12.35;61.13
72157;BME280;60035;52.122;5.406;2024-03-08T13:02:18;101251.28;;;12.36;59.90
72157;BME280;60035;52.122;5.406;2024-03-08T13:04:49;101248.44;;;12.45;60.88
72157;BME280;60035;52.122;5.406;2024-03-08T13:07:27;101234.41;;;12.56;59.16
72157;BME280;60035;52.122;5.406;2024-03-08T13:09:59;101240.81;;;12.42;58.72
72157;BME280;60035;52.122;5.406;2024-03-08T13:12:30;101231.19;;;12.49;60.09
72157;BME280;60035;52.122;5.406;2024-03-08T13:15:04;101234.69;;;12.46;58.49
72157;BME280;60035;52.122;5.406;2024-03-08T13:17:36;101232.09;;;12.48;58.15
72157;BME280;60035;52.122;5.406;2024-03-08T13:20:08;101223.63;;;12.44;58.58
72157;BME280;60035;52.122;5.406;2024-03-08T13:22:59;101219.06;;;12.53;59.14